createdAt,value
2022-09-20T00:00:59.950Z,95907.1
2022-09-20T00:02:02.302Z,95905
2022-09-20T00:03:04.789Z,95906.2
2022-09-20T00:04:07.903Z,95909.8
2022-09-20T00:05:11.275Z,95906.9
2022-09-20T00:06:13.817Z,95905.1
2022-09-20T00:07:16.304Z,95911.3
2022-09-20T00:08:18.224Z,95909.2
2022-09-20T00:09:20.692Z,95908
2022-09-20T00:10:22.915Z,95905.9
2022-09-20T00:11:24.826Z,95905.9
2022-09-20T00:12:27.047Z,95904.9
2022-09-20T00:13:29.561Z,95902.8
2022-09-20T00:14:31.760Z,95898.9
2022-09-20T00:15:33.965Z,95892
2022-09-20T00:16:36.949Z,95896.8
2022-09-20T00:17:38.951Z,95894.2
2022-09-20T00:18:41.157Z,95891.8
2022-09-20T00:19:43.628Z,95895.6
2022-09-20T00:20:45.801Z,95897.3
2022-09-20T00:21:48.001Z,95892.9
2022-09-20T00:22:50.488Z,95895.1
2022-09-20T00:23:52.963Z,95898.4
2022-09-20T00:24:55.428Z,95897
2022-09-20T00:25:57.362Z,95895.2
2022-09-20T00:26:59.825Z,95893.9
2022-09-20T00:28:02.299Z,95891.8
2022-09-20T00:29:04.813Z,95894.5
2022-09-20T00:30:07.035Z,95886.7
2022-09-20T00:31:09.523Z,95888.3
2022-09-20T00:32:12.377Z,95887.2
2022-09-20T00:33:14.989Z,95889
2022-09-20T00:34:16.960Z,95888.5
2022-09-20T00:35:19.433Z,95887.2
2022-09-20T00:36:21.913Z,95890.4
2022-09-20T00:37:23.547Z,95891.7
2022-09-20T00:38:26.047Z,95891.4
2022-09-20T00:39:28.527Z,95887.7
2022-09-20T00:40:31.618Z,95888.5
2022-09-20T00:41:33.713Z,95890.3
2022-09-20T00:42:36.185Z,95890.7
2022-09-20T00:43:38.654Z,95890.9
2022-09-20T00:44:41.176Z,95886.5
2022-09-20T00:45:43.910Z,95893.4
2022-09-20T00:46:46.207Z,95895.1
2022-09-20T00:47:48.406Z,95898.4
2022-09-20T00:48:50.887Z,95896
2022-09-20T00:49:53.360Z,95899.2
2022-09-20T00:50:55.833Z,95902.1
2022-09-20T00:51:58.300Z,95901.4
2022-09-20T00:53:00.773Z,95901.8
2022-09-20T00:54:02.969Z,95897.4
2022-09-20T00:55:05.449Z,95895.7
2022-09-20T00:56:07.924Z,95893.1
2022-09-20T00:57:10.422Z,95896.6
2022-09-20T00:58:12.884Z,95893.1
2022-09-20T00:59:14.792Z,95897.2
2022-09-20T01:00:16.756Z,95891.4
2022-09-20T01:01:19.293Z,95892.3
2022-09-20T01:02:22.320Z,95894.8
2022-09-20T01:03:24.056Z,95895
2022-09-20T01:04:26.550Z,95893
2022-09-20T01:05:28.731Z,95893.2
2022-09-20T01:06:30.900Z,95892.6
2022-09-20T01:07:33.382Z,95893.3
2022-09-20T01:08:35.582Z,95888.9
2022-09-20T01:09:38.074Z,95889.9
2022-09-20T01:10:40.563Z,95889.4
2022-09-20T01:11:42.751Z,95892.7
2022-09-20T01:12:45.261Z,95893
2022-09-20T01:13:47.151Z,95895.3
2022-09-20T01:14:49.642Z,95887.1
2022-09-20T01:15:51.875Z,95889.1
2022-09-20T01:16:54.581Z,95894
2022-09-20T01:17:57.253Z,95893.4
2022-09-20T01:18:59.740Z,95892.1
2022-09-20T01:20:01.644Z,95895.9
2022-09-20T01:21:04.110Z,95894.6
2022-09-20T01:22:06.302Z,95898
2022-09-20T01:23:08.507Z,95894.4
2022-09-20T01:24:10.713Z,95898.9
2022-09-20T01:25:13.202Z,95894
2022-09-20T01:26:15.699Z,95893
2022-09-20T01:27:18.186Z,95894.5
2022-09-20T01:28:20.400Z,95890.9
2022-09-20T01:29:22.601Z,95890.3
2022-09-20T01:30:25.098Z,95882.8
2022-09-20T01:31:27.707Z,95884.7
2022-09-20T01:32:29.808Z,95881
2022-09-20T01:33:32.011Z,95880.6
2022-09-20T01:34:34.497Z,95880.5
2022-09-20T01:35:36.701Z,95878.9
2022-09-20T01:36:39.176Z,95875.3
2022-09-20T01:37:41.651Z,95869.4
2022-09-20T01:38:43.843Z,95873.1
2022-09-20T01:39:46.319Z,95874.6
2022-09-20T01:40:49.079Z,95869.1
2022-09-20T01:41:50.987Z,95865.4
2022-09-20T01:42:53.469Z,95868.9
2022-09-20T01:43:56.174Z,95868.7
2022-09-20T01:44:58.642Z,95869.9
2022-09-20T01:46:01.076Z,95870.2
2022-09-20T01:47:03.648Z,95870.4
2022-09-20T01:48:06.373Z,95868.5
2022-09-20T01:49:08.949Z,95866
2022-09-20T01:50:11.193Z,95868.5
2022-09-20T01:51:13.381Z,95863.9
2022-09-20T01:52:15.558Z,95864.5
2022-09-20T01:53:17.758Z,95864.5
2022-09-20T01:54:20.225Z,95862.2
2022-09-20T01:55:22.141Z,95861.4
2022-09-20T01:56:24.089Z,95861.5
2022-09-20T01:58:30.697Z,95864.4
2022-09-20T01:59:33.573Z,95863.9
2022-09-20T02:00:36.047Z,95867.8
2022-09-20T02:01:38.883Z,95865.7
2022-09-20T02:02:41.808Z,95863.1
2022-09-20T02:03:44.136Z,95863.7
2022-09-20T02:04:46.339Z,95863.7
2022-09-20T02:05:48.521Z,95864.2
2022-09-20T02:06:50.444Z,95861
2022-09-20T02:07:52.641Z,95859.6
2022-09-20T02:08:54.876Z,95862.5
2022-09-20T02:09:57.488Z,95857.8
2022-09-20T02:10:59.967Z,95855.9
2022-09-20T02:12:02.467Z,95861.4
2022-09-20T02:13:04.938Z,95857.5
2022-09-20T02:14:07.775Z,95856.5
2022-09-20T02:15:10.406Z,95858.3
2022-09-20T02:16:13.088Z,95856.5
2022-09-20T02:17:15.628Z,95854.7
2022-09-20T02:18:18.154Z,95858.8
2022-09-20T02:19:20.367Z,95854.2
2022-09-20T02:20:22.843Z,95855.7
2022-09-20T02:21:24.780Z,95851.5
2022-09-20T02:22:26.975Z,95855.9
2022-09-20T02:23:29.453Z,95851.6
2022-09-20T02:24:31.655Z,95855.1
2022-09-20T02:25:34.120Z,95850.5
2022-09-20T02:26:36.595Z,95853
2022-09-20T02:27:38.803Z,95853.2
2022-09-20T02:28:40.711Z,95854.3
2022-09-20T02:29:43.179Z,95858.3
2022-09-20T02:30:45.375Z,95855.1
2022-09-20T02:31:48.264Z,95852.2
2022-09-20T02:32:50.844Z,95850.1
2022-09-20T02:33:53.528Z,95850
2022-09-20T02:34:56.032Z,95851.9
2022-09-20T02:35:58.239Z,95851.3
2022-09-20T02:37:00.435Z,95851.4
2022-09-20T02:38:02.912Z,95851.1
2022-09-20T02:39:05.124Z,95850.9
2022-09-20T02:40:07.812Z,95855.8
2022-09-20T02:41:10.078Z,95855.3
2022-09-20T02:42:12.547Z,95855.1
2022-09-20T02:43:15.043Z,95862
2022-09-20T02:44:16.936Z,95856.9
2022-09-20T02:45:19.429Z,95856.9
2022-09-20T02:46:22.118Z,95855.5
2022-09-20T02:47:24.710Z,95860.5
2022-09-20T02:48:27.233Z,95856
2022-09-20T02:49:29.768Z,95857.1
2022-09-20T02:50:32.255Z,95862.2
2022-09-20T02:51:34.454Z,95862.3
2022-09-20T02:52:36.934Z,95862.2
2022-09-20T02:53:38.583Z,95860.4
2022-09-20T02:54:41.059Z,95861.8
2022-09-20T02:55:43.522Z,95860.1
2022-09-20T02:56:46.002Z,95865.8
2022-09-20T02:57:48.473Z,95861.9
2022-09-20T02:58:50.390Z,95862.1
2022-09-20T02:59:52.606Z,95863.9
2022-09-20T03:00:55.389Z,95860.8
2022-09-20T03:01:57.945Z,95867.5
2022-09-20T03:03:00.206Z,95864.3
2022-09-20T03:04:02.665Z,95865.3
2022-09-20T03:05:05.178Z,95862.7
2022-09-20T03:06:07.663Z,95862.9
2022-09-20T03:07:09.845Z,95859.5
2022-09-20T03:08:12.312Z,95857.8
2022-09-20T03:09:14.786Z,95863.9
2022-09-20T03:10:17.248Z,95869.5
2022-09-20T03:11:19.440Z,95858.9
2022-09-20T03:12:21.914Z,95860.1
2022-09-20T03:13:23.844Z,95858.7
2022-09-20T03:14:26.325Z,95864.8
2022-09-20T03:15:28.525Z,95860.5
2022-09-20T03:16:31.334Z,95861.9
2022-09-20T03:17:33.916Z,95860.7
2022-09-20T03:18:36.379Z,95857.5
2022-09-20T03:19:38.567Z,95860.8
2022-09-20T03:20:40.790Z,95857.2
2022-09-20T03:21:42.791Z,95859
2022-09-20T03:22:44.984Z,95860.5
2022-09-20T03:23:47.185Z,95857.9
2022-09-20T03:24:49.658Z,95856.9
2022-09-20T03:25:51.860Z,95857.1
2022-09-20T03:26:53.481Z,95857.5
2022-09-20T03:27:55.947Z,95854.8
2022-09-20T03:28:58.440Z,95855.9
2022-09-20T03:30:00.729Z,95857.5
2022-09-20T03:31:03.209Z,95855.3
2022-09-20T03:32:06.053Z,95859.5
2022-09-20T03:33:08.673Z,95854.6
2022-09-20T03:34:11.159Z,95857.4
2022-09-20T03:35:13.625Z,95859.3
2022-09-20T03:36:15.847Z,95859.1
2022-09-20T03:37:18.334Z,95858.8
2022-09-20T03:38:20.810Z,95860.9
2022-09-20T03:39:23.279Z,95859.2
2022-09-20T03:40:26.117Z,95859.3
2022-09-20T03:41:28.499Z,95860.6
2022-09-20T03:42:30.712Z,95863.6
2022-09-20T03:43:32.887Z,95867.1
2022-09-20T03:44:35.086Z,95866.1
2022-09-20T03:45:37.548Z,95868.7
2022-09-20T03:46:40.089Z,95865.5
2022-09-20T03:47:42.557Z,95861.5
2022-09-20T03:48:44.803Z,95865.1
2022-09-20T03:49:47.278Z,95864.1
2022-09-20T03:50:49.466Z,95864.3
2022-09-20T03:51:51.979Z,95865.8
2022-09-20T03:52:54.466Z,95866.9
2022-09-20T03:53:56.860Z,95864.5
2022-09-20T03:54:59.338Z,95862.2
2022-09-20T03:56:01.819Z,95864.1
2022-09-20T03:57:04.284Z,95860.4
2022-09-20T03:59:11.756Z,95859.8
2022-09-20T04:00:13.673Z,95861.4
2022-09-20T04:01:16.293Z,95860.5
2022-09-20T04:02:18.833Z,95860.2
2022-09-20T04:03:21.377Z,95864.1
2022-09-20T04:04:23.602Z,95864
2022-09-20T04:05:25.809Z,95867.3
2022-09-20T04:06:28.288Z,95865.6
2022-09-20T04:07:30.787Z,95862.3
2022-09-20T04:09:38.868Z,95868.7
2022-09-20T04:10:41.238Z,95869.7
2022-09-20T04:11:43.721Z,95868.5
2022-09-20T04:12:46.190Z,95868.4
2022-09-20T04:13:48.661Z,95869.2
2022-09-20T04:14:51.140Z,95875.9
2022-09-20T04:15:53.618Z,95869.8
2022-09-20T04:16:56.473Z,95870
2022-09-20T04:17:58.757Z,95870.5
2022-09-20T04:19:00.939Z,95873.8
2022-09-20T04:20:03.177Z,95875.1
2022-09-20T04:21:05.647Z,95874.3
2022-09-20T04:22:07.570Z,95872.3
2022-09-20T04:23:09.817Z,95872.9
2022-09-20T04:24:12.036Z,95874.9
2022-09-20T04:25:14.518Z,95874.6
2022-09-20T04:26:16.686Z,95871.6
2022-09-20T04:27:19.174Z,95872.6
2022-09-20T04:28:21.375Z,95872
2022-09-20T04:29:23.554Z,95874.8
2022-09-20T04:30:25.754Z,95878.3
2022-09-20T04:31:28.443Z,95874.6
2022-09-20T04:32:30.992Z,95875.2
2022-09-20T04:33:33.171Z,95876.5
2022-09-20T04:34:35.645Z,95875.1
2022-09-20T04:35:37.868Z,95877.3
2022-09-20T04:36:40.332Z,95875.7
2022-09-20T04:37:42.812Z,95876.2
2022-09-20T04:38:45.013Z,95877.7
2022-09-20T04:39:47.510Z,95876.9
2022-09-20T04:40:50.057Z,95871.9
2022-09-20T04:41:52.369Z,95878.8
2022-09-20T04:42:54.846Z,95880.2
2022-09-20T04:43:57.340Z,95880.3
2022-09-20T04:44:59.812Z,95882.6
2022-09-20T04:46:02.760Z,95880.3
2022-09-20T04:47:05.317Z,95882.2
2022-09-20T04:48:07.818Z,95882.1
2022-09-20T04:49:10.297Z,95883.7
2022-09-20T04:50:12.982Z,95884
2022-09-20T04:51:15.486Z,95884.3
2022-09-20T04:52:17.952Z,95881
2022-09-20T04:53:20.148Z,95883.8
2022-09-20T04:54:22.659Z,95886.1
2022-09-20T04:55:25.146Z,95886.2
2022-09-20T04:56:27.345Z,95884.5
2022-09-20T04:57:29.814Z,95881.9
2022-09-20T04:58:32.016Z,95883.5
2022-09-20T04:59:34.210Z,95886.3
2022-09-20T05:00:36.686Z,95884.9
2022-09-20T05:01:39.260Z,95887.9
2022-09-20T05:02:42.197Z,95885.7
2022-09-20T05:03:44.836Z,95890.1
2022-09-20T05:04:47.307Z,95883
2022-09-20T05:05:49.796Z,95883.2
2022-09-20T05:06:51.992Z,95883.3
2022-09-20T05:07:54.461Z,95885
2022-09-20T05:10:01.972Z,95887.1
2022-09-20T05:11:04.465Z,95883.3
2022-09-20T05:12:06.933Z,95885.8
2022-09-20T05:13:09.130Z,95883.7
2022-09-20T05:14:11.326Z,95886.4
2022-09-20T05:15:13.803Z,95890.5
2022-09-20T05:16:16.425Z,95889.5
2022-09-20T05:17:18.932Z,95891.7
2022-09-20T05:18:21.141Z,95889.6
2022-09-20T05:19:23.642Z,95887.7
2022-09-20T05:20:25.849Z,95890.9
2022-09-20T05:21:28.057Z,95890.6
2022-09-20T05:22:30.275Z,95895.4
2022-09-20T05:23:32.753Z,95896.8
2022-09-20T05:24:34.949Z,95900.8
2022-09-20T05:25:37.463Z,95897.1
2022-09-20T05:26:39.960Z,95901.9
2022-09-20T05:27:42.467Z,95904.4
2022-09-20T05:28:44.363Z,95903.7
2022-09-20T05:29:46.570Z,95897.4
2022-09-20T05:30:48.764Z,95899.4
2022-09-20T05:31:51.544Z,95903.8
2022-09-20T05:32:54.113Z,95906.6
2022-09-20T05:33:56.294Z,95907.2
2022-09-20T05:34:58.856Z,95900.9
2022-09-20T05:36:00.769Z,95906.1
2022-09-20T05:37:02.945Z,95910.9
2022-09-20T05:38:05.170Z,95905
2022-09-20T05:39:07.645Z,95907.7
2022-09-20T05:40:10.347Z,95906.4
2022-09-20T05:41:12.622Z,95907.5
2022-09-20T05:42:14.607Z,95908
2022-09-20T05:43:16.803Z,95910
2022-09-20T05:44:19.013Z,95902.8
2022-09-20T05:45:21.221Z,95901.8
2022-09-20T05:46:23.424Z,95906.4
2022-09-20T05:47:25.898Z,95903.6
2022-09-20T05:48:27.567Z,95907.3
2022-09-20T05:49:30.036Z,95906.5
2022-09-20T05:50:32.255Z,95906.7
2022-09-20T05:51:34.726Z,95908.2
2022-09-20T05:52:37.200Z,95909.9
2022-09-20T05:53:39.426Z,95908
2022-09-20T05:54:41.921Z,95912
2022-09-20T05:55:44.125Z,95907.2
2022-09-20T05:56:46.381Z,95914
2022-09-20T05:57:48.317Z,95914.6
2022-09-20T05:58:50.227Z,95917.5
2022-09-20T05:59:52.147Z,95913.9
2022-09-20T06:00:54.826Z,95923.1
2022-09-20T06:01:57.577Z,95917.4
2022-09-20T06:02:59.867Z,95924.7
2022-09-20T06:04:02.074Z,95922.8
2022-09-20T06:05:04.539Z,95931.1
2022-09-20T06:06:07.037Z,95933.6
2022-09-20T06:07:08.976Z,95932.5
2022-09-20T06:08:10.929Z,95931.8
2022-09-20T06:09:13.455Z,95930.5
2022-09-20T06:10:15.677Z,95932.3
2022-09-20T06:11:17.629Z,95933.7
2022-09-20T06:12:20.161Z,95934.4
2022-09-20T06:13:22.422Z,95933.2
2022-09-20T06:14:24.637Z,95939.5
2022-09-20T06:15:26.579Z,95936.7
2022-09-20T06:16:28.951Z,95936.3
2022-09-20T06:17:31.701Z,95938.8
2022-09-20T06:18:34.355Z,95938.8
2022-09-20T06:19:36.905Z,95939.5
2022-09-20T06:20:39.450Z,95940.9
2022-09-20T06:21:41.982Z,95939.3
2022-09-20T06:22:44.200Z,95941.3
2022-09-20T06:23:46.708Z,95938
2022-09-20T06:24:49.251Z,95938
2022-09-20T06:25:51.731Z,95932.3
2022-09-20T06:26:54.217Z,95939.6
2022-09-20T06:27:56.752Z,95936.2
2022-09-20T06:29:00.141Z,95936.6
2022-09-20T06:30:02.408Z,95934.8
2022-09-20T06:31:05.306Z,95937.2
2022-09-20T06:32:07.667Z,95939.3
2022-09-20T06:33:10.183Z,95940.8
2022-09-20T06:34:12.667Z,95933.6
2022-09-20T06:35:14.880Z,95939.4
2022-09-20T06:36:17.106Z,95941.6
2022-09-20T06:37:19.362Z,95939
2022-09-20T06:38:21.834Z,95940
2022-09-20T06:39:24.027Z,95939.3
2022-09-20T06:40:26.805Z,95936.7
2022-09-20T06:41:29.531Z,95941.4
2022-09-20T06:42:31.752Z,95939.7
2022-09-20T06:43:33.759Z,95937.2
2022-09-20T06:44:36.256Z,95940.1
2022-09-20T06:45:38.886Z,95941.3
2022-09-20T06:46:41.451Z,95941.5
2022-09-20T06:47:43.654Z,95943.4
2022-09-20T06:48:46.171Z,95941.7
2022-09-20T06:49:48.660Z,95942.3
2022-09-20T06:50:51.177Z,95942.9
2022-09-20T06:51:53.660Z,95945.4
2022-09-20T06:52:56.235Z,95946.6
2022-09-20T06:53:58.435Z,95944.9
2022-09-20T06:55:00.356Z,95942.1
2022-09-20T06:56:02.299Z,95943.9
2022-09-20T06:57:04.208Z,95947.2
2022-09-20T06:58:06.680Z,95948.5
2022-09-20T06:59:09.375Z,95950
2022-09-20T07:00:11.871Z,95951.3
2022-09-20T07:01:14.106Z,95950
2022-09-20T07:02:21.133Z,95953.9
2022-09-20T07:03:23.166Z,95952.1
2022-09-20T07:04:25.664Z,95951.6
2022-09-20T07:05:27.873Z,95956.8
2022-09-20T07:06:29.813Z,95949.4
2022-09-20T07:07:32.304Z,95951.6
2022-09-20T07:08:34.804Z,95952.2
2022-09-20T07:09:37.053Z,95949.4
2022-09-20T07:10:39.266Z,95949.1
2022-09-20T07:11:41.502Z,95956
2022-09-20T07:12:43.980Z,95952.2
2022-09-20T07:13:46.186Z,95953.2
2022-09-20T07:14:48.728Z,95952.6
2022-09-20T07:15:50.972Z,95955
2022-09-20T07:16:53.658Z,95953
2022-09-20T07:17:56.027Z,95956.1
2022-09-20T07:18:58.277Z,95954.3
2022-09-20T07:20:00.639Z,95949.8
2022-09-20T07:21:03.142Z,95953.5
2022-09-20T07:22:05.362Z,95952.5
2022-09-20T07:23:07.608Z,95956.8
2022-09-20T07:24:10.156Z,95955.6
2022-09-20T07:25:12.626Z,95956.5
2022-09-20T07:26:14.579Z,95961.4
2022-09-20T07:27:17.072Z,95959.9
2022-09-20T07:28:19.548Z,95960.2
2022-09-20T07:29:22.022Z,95962.7
2022-09-20T07:30:24.738Z,95961.9
2022-09-20T07:31:27.550Z,95968.6
2022-09-20T07:32:29.851Z,95970.2
2022-09-20T07:33:32.077Z,95968.4
2022-09-20T07:34:34.593Z,95968.9
2022-09-20T07:35:37.146Z,95968.2
2022-09-20T07:36:39.384Z,95971.2
2022-09-20T07:37:41.359Z,95970.4
2022-09-20T07:38:43.863Z,95970.7
2022-09-20T07:39:46.540Z,95971
2022-09-20T07:40:48.487Z,95971.3
2022-09-20T07:41:50.702Z,95975.8
2022-09-20T07:43:58.240Z,95979
2022-09-20T07:45:00.734Z,95977.9
2022-09-20T07:46:03.449Z,95981.6
2022-09-20T07:47:05.755Z,95982.1
2022-09-20T07:48:08.238Z,95981.9
2022-09-20T07:49:10.449Z,95980.9
2022-09-20T07:50:12.664Z,95980
2022-09-20T07:51:14.887Z,95985.3
2022-09-20T07:52:17.365Z,95980.5
2022-09-20T07:53:19.855Z,95980.8
2022-09-20T07:54:22.323Z,95983.4
2022-09-20T07:55:24.569Z,95979.3
2022-09-20T07:56:27.066Z,95979.7
2022-09-20T07:57:29.560Z,95980.8
2022-09-20T07:58:31.770Z,95981.7
2022-09-20T07:59:34.267Z,95981.8
2022-09-20T08:00:36.469Z,95978.3
2022-09-20T08:01:39.018Z,95984
2022-09-20T08:02:41.796Z,95980.4
2022-09-20T08:03:43.749Z,95979.6
2022-09-20T08:04:46.239Z,95985.5
2022-09-20T08:05:48.749Z,95983.7
2022-09-20T08:06:51.229Z,95978.8
2022-09-20T08:07:53.456Z,95979
2022-09-20T08:08:56.108Z,95988.5
2022-09-20T08:09:58.399Z,95981.8
2022-09-20T08:11:00.359Z,95986.8
2022-09-20T08:14:12.008Z,95990.1
2022-09-20T08:15:14.580Z,95990.1
2022-09-20T08:16:16.985Z,95987.4
2022-09-20T08:17:19.568Z,95984.2
2022-09-20T08:18:22.078Z,95985.9
2022-09-20T08:19:24.284Z,95986.9
2022-09-20T08:20:26.765Z,95983.3
2022-09-20T08:21:29.013Z,95985.2
2022-09-20T08:22:31.231Z,95983.4
2022-09-20T08:23:33.706Z,95989.3
2022-09-20T08:24:35.918Z,95986.9
2022-09-20T08:25:38.125Z,95990.9
2022-09-20T08:26:40.321Z,95992.9
2022-09-20T08:27:42.799Z,95988.8
2022-09-20T08:28:45.024Z,95987.7
2022-09-20T08:29:47.525Z,95990.4
2022-09-20T08:30:50.066Z,95989.5
2022-09-20T08:31:52.745Z,95996
2022-09-20T08:32:55.383Z,95990
2022-09-20T08:33:57.939Z,95994
2022-09-20T08:35:00.137Z,95994.2
2022-09-20T08:36:02.638Z,95993.5
2022-09-20T08:37:05.118Z,95991.9
2022-09-20T08:40:17.568Z,95997.4
2022-09-20T08:41:19.889Z,95995.2
2022-09-20T08:42:22.422Z,96000.3
2022-09-20T08:43:24.985Z,96002.4
2022-09-20T08:44:27.192Z,96000.6
2022-09-20T08:46:34.654Z,95998.7
2022-09-20T08:47:37.418Z,96000.5
2022-09-20T08:48:39.926Z,96000.4
2022-09-20T08:50:47.140Z,96000.5
2022-09-20T08:51:50.183Z,96000.7
2022-09-20T08:52:52.106Z,95997
2022-09-20T08:53:54.315Z,96001.1
2022-09-20T08:54:56.786Z,95995.5
2022-09-20T08:55:59.262Z,95995.8
2022-09-20T08:57:01.459Z,95994.5
2022-09-20T08:59:08.632Z,95992.8
2022-09-20T09:00:10.556Z,95997.3
2022-09-20T09:01:13.347Z,95996.8
2022-09-20T09:02:16.214Z,95994.7
2022-09-20T09:03:18.779Z,95998
2022-09-20T09:04:21.290Z,95996.8
2022-09-20T09:05:23.805Z,95999.6
2022-09-20T09:06:26.300Z,95999.7
2022-09-20T09:07:28.510Z,96000.6
2022-09-20T09:08:30.720Z,96001.4
2022-09-20T09:12:50.148Z,96002
2022-09-20T09:13:52.449Z,96004.5
2022-09-20T09:14:54.831Z,96003.5
2022-09-20T09:15:57.068Z,95997.3
2022-09-20T09:16:59.599Z,96001.8
2022-09-20T09:18:02.222Z,96002.2
2022-09-20T09:19:04.781Z,96008.4
2022-09-20T09:20:07.240Z,96009.8
2022-09-20T09:21:09.743Z,96003.1
2022-09-20T09:22:11.958Z,96003.8
2022-09-20T09:23:13.876Z,95998.3
2022-09-20T09:24:16.379Z,96005.1
2022-09-20T09:25:18.838Z,96006.8
2022-09-20T09:26:21.393Z,96004.4
2022-09-20T09:27:23.874Z,96005.9
2022-09-20T09:28:25.794Z,95999.8
2022-09-20T09:30:33.220Z,95997.3
2022-09-20T09:31:35.792Z,95997.6
2022-09-20T09:32:38.143Z,95996.2
2022-09-20T09:33:40.659Z,95995.1
2022-09-20T09:34:42.889Z,95996.1
2022-09-20T09:35:45.529Z,95992.7
2022-09-20T09:36:48.081Z,95990.3
2022-09-20T09:37:50.567Z,95991.2
2022-09-20T09:38:53.062Z,95992
2022-09-20T09:39:55.549Z,95993.3
2022-09-20T09:40:58.036Z,95990.6
2022-09-20T09:41:59.969Z,95991.3
2022-09-20T09:43:02.448Z,95992
2022-09-20T09:44:04.934Z,95989.3
2022-09-20T09:45:07.418Z,95992.7
2022-09-20T09:46:10.203Z,95989.3
2022-09-20T09:47:12.489Z,95989.1
2022-09-20T09:48:14.973Z,95991.4
2022-09-20T09:49:17.926Z,95989.3
2022-09-20T09:50:20.131Z,95990.2
2022-09-20T09:51:22.648Z,95986.9
2022-09-20T09:52:25.201Z,95989.5
2022-09-20T09:53:27.407Z,95993.4
2022-09-20T09:54:29.587Z,95991.3
2022-09-20T09:55:31.516Z,95992.4
2022-09-20T09:56:33.727Z,95990.7
2022-09-20T09:57:35.635Z,95990.7
2022-09-20T09:58:38.125Z,95992.8
2022-09-20T09:59:40.623Z,95990.4
2022-09-20T10:00:43.140Z,95993.3
2022-09-20T10:01:45.959Z,95992.3
2022-09-20T10:02:48.317Z,95989.9
2022-09-20T10:03:50.802Z,95994.4
2022-09-20T10:04:53.043Z,95989.6
2022-09-20T10:05:54.960Z,95994.9
2022-09-20T10:06:57.254Z,95989.6
2022-09-20T10:07:59.468Z,95990.3
2022-09-20T10:09:01.653Z,95987.6
2022-09-20T10:10:03.847Z,95987.3
2022-09-20T10:11:06.055Z,95985.7
2022-09-20T10:12:08.025Z,95987
2022-09-20T10:13:11.531Z,95985.9
2022-09-20T10:14:13.829Z,95985.2
2022-09-20T10:15:16.046Z,95982.8
2022-09-20T10:16:18.483Z,95983.3
2022-09-20T10:17:20.521Z,95985.4
2022-09-20T10:18:22.983Z,95982.8
2022-09-20T10:19:25.194Z,95984.4
2022-09-20T10:20:27.414Z,95986.9
2022-09-20T10:21:29.593Z,95983.4
2022-09-20T10:22:31.590Z,95987.3
2022-09-20T10:24:38.261Z,95990.6
2022-09-20T10:25:40.749Z,95987
2022-09-20T10:26:42.977Z,95987.4
2022-09-20T10:27:45.178Z,95986
2022-09-20T10:28:47.670Z,95992.1
2022-09-20T10:29:50.022Z,95986.8
2022-09-20T10:30:52.897Z,95988.8
2022-09-20T10:31:55.567Z,95989.1
2022-09-20T10:32:58.165Z,95988.3
2022-09-20T10:34:00.453Z,95987
2022-09-20T10:35:02.939Z,95988.3
2022-09-20T10:36:05.625Z,95992.1
2022-09-20T10:37:07.939Z,95992.8
2022-09-20T10:38:10.214Z,95989.7
2022-09-20T10:39:12.724Z,95990.1
2022-09-20T10:40:15.581Z,95988
2022-09-20T10:41:18.340Z,95986.8
2022-09-20T10:42:20.265Z,95993.1
2022-09-20T10:43:22.494Z,95992.3
2022-09-20T10:44:24.675Z,95991.8
2022-09-20T10:47:36.861Z,95990
2022-09-20T10:48:38.802Z,95991.9
2022-09-20T10:49:41.281Z,95991.3
2022-09-20T10:50:43.769Z,95990.9
2022-09-20T10:51:46.347Z,95990.2
2022-09-20T10:52:48.563Z,95990.9
2022-09-20T10:53:51.097Z,95996.1
2022-09-20T10:54:53.363Z,95992.2
2022-09-20T10:55:55.874Z,95991.6
2022-09-20T10:56:58.497Z,95990.2
2022-09-20T10:58:01.136Z,95992.8
2022-09-20T10:59:03.639Z,95995.4
2022-09-20T11:00:05.280Z,95988.8
2022-09-20T11:01:07.749Z,95998
2022-09-20T11:02:10.598Z,95991.2
2022-09-20T11:03:12.923Z,95994.6
2022-09-20T11:04:15.112Z,95996.2
2022-09-20T11:05:17.041Z,95993.3
2022-09-20T11:06:19.236Z,95994
2022-09-20T11:07:21.746Z,95991.8
2022-09-20T11:08:23.988Z,95991
2022-09-20T11:09:26.542Z,95991.8
2022-09-20T11:10:28.763Z,95990.7
2022-09-20T11:11:31.242Z,95985.7
2022-09-20T11:12:33.713Z,95991.3
2022-09-20T11:13:35.919Z,95988.7
2022-09-20T11:14:37.819Z,95993.3
2022-09-20T11:15:40.318Z,95997.7
2022-09-20T11:16:43.180Z,95995.6
2022-09-20T11:17:45.302Z,95996.4
2022-09-20T11:18:47.512Z,95997.2
2022-09-20T11:19:49.712Z,95993
2022-09-20T11:20:52.181Z,95997.2
2022-09-20T11:21:54.706Z,95990.4
2022-09-20T11:22:57.270Z,95992.8
2022-09-20T11:23:59.774Z,95993
2022-09-20T11:25:02.285Z,95994.7
2022-09-20T11:26:04.528Z,95990.7
2022-09-20T11:27:06.733Z,95995.7
2022-09-20T11:28:09.216Z,95994.8
2022-09-20T11:29:11.242Z,95995.8
2022-09-20T11:30:13.462Z,96000.5
2022-09-20T11:31:16.007Z,95997.1
2022-09-20T11:32:18.698Z,95993.5
2022-09-20T11:33:21.218Z,95995.2
2022-09-20T11:34:23.470Z,95991.5
2022-09-20T11:35:26.006Z,95990.1
2022-09-20T11:36:28.534Z,95993
2022-09-20T11:37:30.741Z,95994.9
2022-09-20T11:38:33.059Z,95997.1
2022-09-20T11:39:35.550Z,95997.9
2022-09-20T11:40:38.223Z,95993.1
2022-09-20T11:41:40.819Z,95994.9
2022-09-20T11:42:43.017Z,95994
2022-09-20T11:43:45.506Z,95989.6
2022-09-20T11:44:47.977Z,95995.4
2022-09-20T11:45:50.427Z,95998.6
2022-09-20T11:46:52.761Z,95989.7
2022-09-20T11:47:56.899Z,95988.3
2022-09-20T11:48:59.392Z,95986.9
2022-09-20T11:50:01.907Z,95985.5
2022-09-20T11:51:04.120Z,95983.2
2022-09-20T11:52:06.606Z,95983.5
2022-09-20T11:53:08.809Z,95987.9
2022-09-20T11:54:11.318Z,95985.7
2022-09-20T11:55:13.557Z,95983.3
2022-09-20T11:56:16.071Z,95988.9
2022-09-20T11:57:18.287Z,95988.7
2022-09-20T11:58:20.762Z,95987.4
2022-09-20T11:59:22.966Z,95987.3
2022-09-20T12:00:25.167Z,95988.2
2022-09-20T12:02:33.447Z,95984.2
2022-09-20T12:03:36.254Z,95985.5
2022-09-20T12:04:40.117Z,95987.1
2022-09-20T12:05:42.980Z,95980.1
2022-09-20T12:06:45.455Z,95982.6
2022-09-20T12:07:47.940Z,95986.5
2022-09-20T12:08:50.410Z,95980.4
2022-09-20T12:09:52.922Z,95976.2
2022-09-20T12:10:55.391Z,95981.9
2022-09-20T12:11:57.906Z,95979.1
2022-09-20T12:12:59.865Z,95981.7
2022-09-20T12:14:02.353Z,95981.7
2022-09-20T12:15:04.884Z,95984
2022-09-20T12:16:07.159Z,95981.5
2022-09-20T12:17:09.463Z,95982.4
2022-09-20T12:18:11.407Z,95977
2022-09-20T12:19:13.580Z,95987.1
2022-09-20T12:21:21.105Z,95979.8
2022-09-20T12:22:23.302Z,95980.3
2022-09-20T12:23:25.499Z,95971.9
2022-09-20T12:24:27.981Z,95969.5
2022-09-20T12:25:30.483Z,95974.1
2022-09-20T12:26:32.959Z,95966.9
2022-09-20T12:27:35.190Z,95968.1
2022-09-20T12:28:37.694Z,95965.2
2022-09-20T12:29:39.375Z,95970
2022-09-20T12:30:41.850Z,95966.5
2022-09-20T12:31:44.469Z,95968.8
2022-09-20T12:32:46.994Z,95968.7
2022-09-20T12:33:49.187Z,95965.1
2022-09-20T12:34:51.702Z,95965.2
2022-09-20T12:35:53.904Z,95969.5
2022-09-20T12:36:56.492Z,95965
2022-09-20T12:37:58.969Z,95968.4
2022-09-20T12:39:00.876Z,95965.5
2022-09-20T12:40:03.620Z,95960.5
2022-09-20T12:41:05.710Z,95959.3
2022-09-20T12:42:08.181Z,95954.2
2022-09-20T12:43:10.833Z,95962.7
2022-09-20T12:44:13.347Z,95959.2
2022-09-20T12:45:15.821Z,95959.4
2022-09-20T12:46:18.592Z,95956.4
2022-09-20T12:47:20.900Z,95956.3
2022-09-20T12:48:23.364Z,95953.9
2022-09-20T12:49:25.566Z,95956.2
2022-09-20T12:50:27.757Z,95946.5
2022-09-20T12:51:29.743Z,95949.5
2022-09-20T12:52:32.241Z,95952.1
2022-09-20T12:53:34.735Z,95951.4
2022-09-20T12:54:37.209Z,95945.1
2022-09-20T12:55:39.161Z,95946.5
2022-09-20T12:56:41.432Z,95948.3
2022-09-20T12:57:43.927Z,95945.8
2022-09-20T12:58:46.451Z,95950.6
2022-09-20T12:59:48.969Z,95946.2
2022-09-20T13:00:51.475Z,95958.6
2022-09-20T13:01:54.231Z,95949.3
2022-09-20T13:02:56.503Z,95944.9